createdAt,value
2023-01-02T00:00:58.407Z,3.88
2023-01-02T00:03:25.929Z,5.03
2023-01-02T00:05:55.638Z,4.13
2023-01-02T00:08:26.092Z,4.57
2023-01-02T00:10:53.301Z,4.47
2023-01-02T00:13:20.584Z,3.83
2023-01-02T00:15:48.101Z,4.20
2023-01-02T00:18:16.848Z,4.07
2023-01-02T00:20:46.720Z,4.00
2023-01-02T00:23:23.866Z,4.18
2023-01-02T00:28:22.518Z,4.28
2023-01-02T00:33:16.455Z,4.03
2023-01-02T00:38:09.904Z,4.13
2023-01-02T00:40:36.672Z,3.80
2023-01-02T00:43:03.825Z,4.07
2023-01-02T00:45:31.653Z,4.22
2023-01-02T00:47:58.373Z,4.20
2023-01-02T00:50:25.027Z,4.07
2023-01-02T00:52:51.723Z,4.63
2023-01-02T00:55:18.410Z,4.40
2023-01-02T00:57:45.153Z,3.60
2023-01-02T01:00:14.823Z,4.30
2023-01-02T01:02:45.276Z,4.95
2023-01-02T01:07:38.680Z,4.40
2023-01-02T01:10:05.950Z,3.50
2023-01-02T01:12:32.708Z,4.55
2023-01-02T01:14:59.453Z,4.57
2023-01-02T01:17:26.260Z,4.78
2023-01-02T01:19:52.984Z,5.32
2023-01-02T01:22:19.767Z,4.57
2023-01-02T01:24:46.510Z,4.38
2023-01-02T01:27:13.213Z,4.70
2023-01-02T01:29:39.983Z,4.55
2023-01-02T01:32:06.731Z,4.22
2023-01-02T01:34:33.548Z,4.95
2023-01-02T01:37:00.358Z,3.85
2023-01-02T01:39:27.096Z,4.97
2023-01-02T01:41:53.990Z,4.00
2023-01-02T01:44:46.895Z,5.10
2023-01-02T01:47:31.153Z,4.05
2023-01-02T01:50:05.571Z,4.60
2023-01-02T01:52:35.098Z,5.20
2023-01-02T01:55:24.069Z,3.80
2023-01-02T01:58:01.146Z,4.60
2023-01-02T02:00:28.896Z,4.30
2023-01-02T02:03:04.224Z,4.53
2023-01-02T02:05:31.821Z,4.38
2023-01-02T02:08:04.693Z,4.05
2023-01-02T02:10:31.415Z,4.07
2023-01-02T02:12:58.351Z,4.53
2023-01-02T02:18:13.787Z,5.05
2023-01-02T02:21:02.742Z,4.20
2023-01-02T02:24:00.256Z,3.90
2023-01-02T02:26:43.016Z,4.05
2023-01-02T02:29:28.553Z,4.80
2023-01-02T02:32:17.981Z,4.30
2023-01-02T02:35:11.145Z,3.85
2023-01-02T02:38:07.587Z,4.03
2023-01-02T02:40:52.858Z,4.07
2023-01-02T02:43:44.893Z,4.20
2023-01-02T02:46:31.904Z,4.55
2023-01-02T02:49:06.914Z,4.15
2023-01-02T02:51:48.693Z,3.95
2023-01-02T02:54:24.729Z,5.25
2023-01-02T02:56:52.972Z,4.32
2023-01-02T02:59:20.449Z,4.28
2023-01-02T03:01:47.453Z,4.60
2023-01-02T03:04:19.277Z,3.85
2023-01-02T03:07:05.567Z,3.47
2023-01-02T03:09:47.290Z,4.25
2023-01-02T03:12:48.443Z,4.55
2023-01-02T03:15:18.035Z,3.90
2023-01-02T03:18:03.815Z,4.05
2023-01-02T03:20:38.847Z,4.47
2023-01-02T03:23:10.078Z,4.18
2023-01-02T03:25:37.902Z,4.32
2023-01-02T03:28:07.690Z,3.72
2023-01-02T03:30:37.428Z,4.32
2023-01-02T03:33:15.085Z,4.30
2023-01-02T03:38:36.743Z,3.85
2023-01-02T03:41:14.705Z,3.95
2023-01-02T03:43:43.710Z,4.57
2023-01-02T03:46:48.688Z,3.92
2023-01-02T03:49:43.331Z,3.83
2023-01-02T03:52:10.092Z,4.38
2023-01-02T03:54:37.643Z,4.88
2023-01-02T03:57:22.245Z,4.95
2023-01-02T04:00:18.047Z,4.22
2023-01-02T04:02:50.423Z,5.00
2023-01-02T04:05:24.173Z,4.68
2023-01-02T04:08:05.347Z,4.45
2023-01-02T04:10:35.776Z,4.20
2023-01-02T04:13:11.535Z,4.43
2023-01-02T04:15:39.807Z,4.22
2023-01-02T04:18:11.952Z,4.22
2023-01-02T04:20:43.045Z,4.18
2023-01-02T04:23:17.275Z,4.45
2023-01-02T04:25:59.207Z,5.00
2023-01-02T04:28:32.709Z,4.95
2023-01-02T04:31:20.856Z,4.60
2023-01-02T04:36:22.612Z,4.38
2023-01-02T04:38:49.502Z,5.40
2023-01-02T04:43:46.224Z,5.05
2023-01-02T04:46:13.843Z,5.32
2023-01-02T04:48:40.622Z,5.03
2023-01-02T04:51:07.470Z,5.13
2023-01-02T04:53:34.246Z,4.60
2023-01-02T04:56:00.958Z,5.22
2023-01-02T04:58:28.104Z,4.35
2023-01-02T05:00:55.105Z,4.57
2023-01-02T05:03:22.002Z,4.75
2023-01-02T05:08:16.557Z,4.57
2023-01-02T05:10:44.635Z,4.63
2023-01-02T05:13:11.352Z,5.40
2023-01-02T05:15:38.120Z,3.70
2023-01-02T05:20:31.586Z,4.85
2023-01-02T05:23:16.886Z,7.82
2023-01-02T05:25:43.617Z,3.63
2023-01-02T05:28:10.297Z,4.22
2023-01-02T05:30:38.884Z,3.95
2023-01-02T05:33:05.807Z,5.10
2023-01-02T05:38:01.285Z,4.32
2023-01-02T05:40:28.215Z,3.90
2023-01-02T05:45:21.733Z,4.72
2023-01-02T05:47:49.226Z,3.92
2023-01-02T05:50:16.064Z,4.57
2023-01-02T05:52:45.847Z,4.38
2023-01-02T05:55:13.211Z,5.03
2023-01-02T05:57:41.770Z,4.45
2023-01-02T06:00:09.250Z,4.57
2023-01-02T06:02:42.004Z,4.00
2023-01-02T06:05:11.002Z,3.88
2023-01-02T06:07:37.735Z,4.82
2023-01-02T06:10:04.995Z,4.75
2023-01-02T06:12:31.777Z,3.72
2023-01-02T06:14:58.455Z,6.00
2023-01-02T06:17:25.134Z,4.95
2023-01-02T06:19:54.160Z,4.97
2023-01-02T06:22:21.129Z,4.13
2023-01-02T06:24:47.796Z,4.40
2023-01-02T06:27:14.562Z,4.30
2023-01-02T06:29:41.291Z,3.90
2023-01-02T06:32:08.104Z,4.35
2023-01-02T06:34:34.863Z,4.63
2023-01-02T06:37:06.247Z,3.65
2023-01-02T06:39:36.312Z,4.90
2023-01-02T06:42:03.312Z,4.32
2023-01-02T06:44:30.032Z,4.55
2023-01-02T06:46:56.794Z,4.88
2023-01-02T06:49:23.516Z,6.03
2023-01-02T06:51:50.186Z,4.25
2023-01-02T06:54:16.955Z,4.03
2023-01-02T06:56:43.714Z,3.83
2023-01-02T06:59:10.650Z,3.65
2023-01-02T07:04:04.162Z,3.90
2023-01-02T07:06:30.818Z,3.55
2023-01-02T07:08:57.492Z,3.58
2023-01-02T07:11:25.163Z,4.00
2023-01-02T07:13:54.003Z,4.03
2023-01-02T07:16:24.787Z,2.97
2023-01-02T07:18:53.256Z,3.55
2023-01-02T07:21:20.546Z,3.67
2023-01-02T07:23:47.311Z,3.15
2023-01-02T07:26:14.412Z,3.28
2023-01-02T07:28:41.548Z,3.97
2023-01-02T07:31:12.407Z,3.35
2023-01-02T07:33:39.181Z,3.05
2023-01-02T07:36:08.769Z,3.05
2023-01-02T07:38:38.070Z,3.60
2023-01-02T07:41:12.093Z,3.03
2023-01-02T07:43:38.786Z,3.00
2023-01-02T07:46:05.648Z,3.50
2023-01-02T07:48:33.264Z,2.97
2023-01-02T07:51:05.268Z,2.50
2023-01-02T07:53:32.072Z,3.08
2023-01-02T07:56:00.032Z,2.72
2023-01-02T07:58:27.266Z,3.05
2023-01-02T08:00:58.366Z,2.88
2023-01-02T08:03:28.253Z,3.78
2023-01-02T08:05:55.056Z,3.80
2023-01-02T08:08:21.767Z,3.10
2023-01-02T08:10:48.487Z,3.85
2023-01-02T08:13:15.156Z,3.45
2023-01-02T08:15:41.951Z,4.03
2023-01-02T08:18:08.665Z,2.70
2023-01-02T08:20:35.463Z,3.22
2023-01-02T08:25:30.254Z,3.55
2023-01-02T08:27:57.784Z,3.60
2023-01-02T08:30:24.623Z,3.78
2023-01-02T08:35:17.915Z,2.58
2023-01-02T08:37:50.276Z,3.47
2023-01-02T08:40:18.265Z,2.92
2023-01-02T08:42:46.260Z,2.58
2023-01-02T08:45:12.991Z,2.88
2023-01-02T08:47:39.707Z,2.50
2023-01-02T08:50:06.544Z,3.60
2023-01-02T08:52:36.313Z,2.92
2023-01-02T08:55:05.490Z,2.80
2023-01-02T08:57:32.846Z,3.15
2023-01-02T09:00:20.627Z,4.30
2023-01-02T09:02:49.099Z,3.00
2023-01-02T09:05:15.901Z,3.42
2023-01-02T09:07:43.375Z,3.00
2023-01-02T09:10:10.911Z,2.90
2023-01-02T09:12:37.684Z,3.85
2023-01-02T09:15:05.276Z,6.53
2023-01-02T09:17:32.037Z,2.40
2023-01-02T09:19:58.840Z,3.47
2023-01-02T09:24:52.077Z,2.75
2023-01-02T09:27:18.869Z,2.38
2023-01-02T09:29:45.582Z,3.22
2023-01-02T09:32:12.385Z,3.03
2023-01-02T09:34:39.108Z,2.97
2023-01-02T09:37:05.927Z,3.20
2023-01-02T09:39:33.079Z,3.03
2023-01-02T09:42:00.734Z,3.97
2023-01-02T09:44:41.120Z,3.25
2023-01-02T09:47:10.785Z,3.15
2023-01-02T09:49:51.787Z,3.15
2023-01-02T09:52:23.232Z,3.47
2023-01-02T09:54:50.047Z,3.00
2023-01-02T09:57:28.479Z,3.70
2023-01-02T09:59:55.125Z,3.60
2023-01-02T10:02:45.006Z,3.42
2023-01-02T10:05:27.420Z,2.65
2023-01-02T10:08:21.768Z,3.15
2023-01-02T10:11:24.430Z,2.38
2023-01-02T10:14:21.115Z,2.72
2023-01-02T10:16:53.068Z,2.85
2023-01-02T10:19:38.095Z,2.67
2023-01-02T10:22:07.302Z,2.78
2023-01-02T10:24:46.762Z,2.35
2023-01-02T10:27:20.006Z,2.70
2023-01-02T10:30:05.567Z,2.83
2023-01-02T10:32:34.629Z,2.72
2023-01-02T10:35:07.377Z,3.75
2023-01-02T10:37:35.361Z,3.75
2023-01-02T10:40:02.392Z,3.10
2023-01-02T10:42:32.921Z,3.63
2023-01-02T10:45:00.896Z,2.83
2023-01-02T10:47:35.726Z,2.42
2023-01-02T10:50:06.088Z,2.50
2023-01-02T10:52:34.470Z,3.03
2023-01-02T10:55:03.011Z,3.15
2023-01-02T10:57:51.871Z,3.70
2023-01-02T11:00:25.506Z,2.58
2023-01-02T11:03:07.756Z,3.17
2023-01-02T11:05:51.097Z,2.75
2023-01-02T11:08:21.844Z,2.55
2023-01-02T11:10:50.280Z,3.42
2023-01-02T11:13:21.910Z,3.15
2023-01-02T11:15:59.876Z,2.53
2023-01-02T11:18:30.283Z,3.50
2023-01-02T11:21:04.192Z,3.08
2023-01-02T11:23:43.175Z,2.72
2023-01-02T11:26:21.368Z,2.83
2023-01-02T11:28:50.644Z,2.38
2023-01-02T11:31:18.598Z,2.88
2023-01-02T11:33:46.417Z,2.28
2023-01-02T11:36:13.304Z,2.40
2023-01-02T11:41:49.389Z,2.17
2023-01-02T11:44:32.212Z,3.05
2023-01-02T11:47:00.170Z,3.28
2023-01-02T11:49:35.756Z,2.75
2023-01-02T11:52:04.912Z,2.35
2023-01-02T11:54:46.643Z,2.53
2023-01-02T11:57:20.227Z,3.22
2023-01-02T11:59:51.253Z,3.33
2023-01-02T12:02:24.869Z,2.38
2023-01-02T12:04:51.558Z,2.80
2023-01-02T12:07:43.391Z,3.97
2023-01-02T12:10:26.415Z,2.35
2023-01-02T12:13:13.820Z,2.40
2023-01-02T12:15:46.454Z,3.05
2023-01-02T12:18:47.276Z,2.80
2023-01-02T12:21:24.301Z,3.00
2023-01-02T12:23:59.806Z,2.47
2023-01-02T12:26:52.842Z,3.22
2023-01-02T12:29:46.815Z,4.18
2023-01-02T12:32:45.250Z,2.75
2023-01-02T12:35:37.064Z,3.95
2023-01-02T12:38:07.748Z,3.30
2023-01-02T12:40:46.035Z,2.95
2023-01-02T12:43:34.468Z,3.70
2023-01-02T12:46:30.455Z,3.85
2023-01-02T12:49:28.015Z,3.30
2023-01-02T12:52:00.890Z,3.65
2023-01-02T12:54:31.218Z,3.38
2023-01-02T12:57:18.351Z,3.65
2023-01-02T13:00:13.972Z,3.70
2023-01-02T13:02:56.158Z,2.63
2023-01-02T13:05:27.913Z,3.40
2023-01-02T13:08:04.773Z,2.95
2023-01-02T13:10:32.356Z,3.10
2023-01-02T13:13:01.727Z,3.58
2023-01-02T13:15:34.456Z,2.40
2023-01-02T13:18:19.432Z,3.70
2023-01-02T13:21:09.625Z,3.30
2023-01-02T13:23:47.692Z,3.50
2023-01-02T13:26:23.346Z,3.10
2023-01-02T13:28:59.796Z,3.17
2023-01-02T13:31:46.154Z,3.08
2023-01-02T13:34:22.061Z,3.30
2023-01-02T13:36:51.059Z,3.58
2023-01-02T13:39:33.465Z,3.67
2023-01-02T13:42:21.662Z,3.08
2023-01-02T13:44:54.613Z,2.88
2023-01-02T13:47:33.551Z,3.13
2023-01-02T13:50:28.448Z,2.83
2023-01-02T13:53:10.352Z,3.00
2023-01-02T13:55:39.835Z,3.13
2023-01-02T13:58:17.766Z,3.33
2023-01-02T14:00:54.842Z,3.03
2023-01-02T14:06:00.591Z,3.42
2023-01-02T14:08:36.231Z,3.00
2023-01-02T14:11:07.203Z,3.40
2023-01-02T14:13:52.666Z,3.42
2023-01-02T14:16:25.244Z,3.90
2023-01-02T14:19:16.439Z,3.67
2023-01-02T14:21:55.183Z,3.45
2023-01-02T14:24:38.831Z,3.38
2023-01-02T14:27:48.159Z,4.15
2023-01-02T14:30:21.526Z,3.28
2023-01-02T14:32:52.077Z,3.28
2023-01-02T14:35:18.751Z,3.30
2023-01-02T14:37:48.611Z,2.95
2023-01-02T14:40:21.596Z,4.45
2023-01-02T14:43:22.238Z,3.58
2023-01-02T14:45:52.527Z,3.38
2023-01-02T14:48:32.119Z,3.60
2023-01-02T14:51:12.326Z,3.47
2023-01-02T14:53:52.996Z,3.72
2023-01-02T14:56:24.643Z,3.40
2023-01-02T14:58:52.902Z,3.88
2023-01-02T15:01:43.370Z,4.30
2023-01-02T15:04:20.557Z,3.97
2023-01-02T15:07:02.168Z,4.00
2023-01-02T15:09:45.291Z,3.47
2023-01-02T15:12:52.205Z,3.80
2023-01-02T15:15:24.130Z,4.03
2023-01-02T15:17:52.294Z,3.53
2023-01-02T15:20:23.194Z,4.63
2023-01-02T15:22:54.258Z,4.20
2023-01-02T15:25:33.068Z,6.35
2023-01-02T15:27:59.849Z,4.78
2023-01-02T15:30:38.742Z,4.63
2023-01-02T15:33:12.604Z,4.43
2023-01-02T15:35:39.332Z,3.95
2023-01-02T15:38:21.154Z,3.08
2023-01-02T15:40:48.118Z,3.58
2023-01-02T15:46:00.984Z,3.53
2023-01-02T15:48:28.516Z,3.40
2023-01-02T15:50:57.661Z,2.72
2023-01-02T15:53:34.487Z,2.22
2023-01-02T15:56:01.315Z,2.47
2023-01-02T15:58:36.360Z,2.78
2023-01-02T16:01:11.488Z,2.47
2023-01-02T16:04:01.833Z,2.80
2023-01-02T16:06:40.692Z,2.80
2023-01-02T16:09:18.968Z,2.40
2023-01-02T16:11:53.005Z,3.13
2023-01-02T16:14:59.106Z,2.67
2023-01-02T16:17:30.562Z,2.00
2023-01-02T16:19:59.792Z,2.60
2023-01-02T16:22:26.614Z,1.95
2023-01-02T16:25:01.044Z,1.95
2023-01-02T16:27:32.131Z,1.65
2023-01-02T16:29:59.244Z,1.70
2023-01-02T16:32:27.863Z,1.40
2023-01-02T16:35:18.294Z,1.70
2023-01-02T16:37:55.427Z,1.50
2023-01-02T16:40:58.830Z,2.00
2023-01-02T16:43:13.547Z,1.90
2023-01-02T16:45:40.730Z,1.80
2023-01-02T16:48:13.809Z,1.90
2023-01-02T16:50:43.656Z,1.67
2023-01-02T16:53:18.954Z,1.85
2023-01-02T16:55:45.997Z,1.67
2023-01-02T16:58:12.780Z,1.65
2023-01-02T17:00:43.341Z,1.85
2023-01-02T17:03:20.896Z,1.70
2023-01-02T17:06:01.640Z,2.15
2023-01-02T17:08:33.161Z,1.70
2023-01-02T17:11:01.001Z,1.63
2023-01-02T17:13:29.166Z,1.90
2023-01-02T17:15:57.032Z,2.17
2023-01-02T17:18:24.633Z,2.53
2023-01-02T17:20:52.048Z,2.28
2023-01-02T17:23:19.711Z,1.73
2023-01-02T17:25:47.105Z,1.85
2023-01-02T17:28:14.071Z,1.90
2023-01-02T17:30:42.493Z,1.55
2023-01-02T17:33:09.302Z,1.70
2023-01-02T17:38:03.985Z,1.27
2023-01-02T17:40:31.114Z,0.85
2023-01-02T17:42:57.907Z,0.90
2023-01-02T17:45:25.193Z,0.85
2023-01-02T17:48:04.197Z,0.73
2023-01-02T17:50:34.689Z,0.80
2023-01-02T17:55:28.191Z,0.93
2023-01-02T17:57:55.049Z,0.77
2023-01-02T18:00:23.482Z,0.93
2023-01-02T18:02:52.445Z,0.68
2023-01-02T18:05:20.942Z,1.35
2023-01-02T18:07:47.749Z,1.08
2023-01-02T18:10:19.404Z,0.68
2023-01-02T18:12:46.855Z,0.75
2023-01-02T18:17:41.411Z,1.00
2023-01-02T18:20:14.517Z,0.93
2023-01-02T18:22:48.313Z,0.88
2023-01-02T18:25:20.404Z,0.90
2023-01-02T18:27:48.339Z,0.98
2023-01-02T18:30:20.989Z,1.23
2023-01-02T18:32:49.138Z,1.00
2023-01-02T18:38:29.348Z,0.70
2023-01-02T18:40:56.561Z,1.00
2023-01-02T18:43:37.545Z,0.60
2023-01-02T18:46:15.006Z,0.82
2023-01-02T18:51:16.381Z,0.50
2023-01-02T18:53:47.619Z,0.73
2023-01-02T18:56:19.089Z,0.50
2023-01-02T18:59:06.074Z,0.70
2023-01-02T19:01:40.466Z,0.50
2023-01-02T19:04:18.924Z,1.38
2023-01-02T19:06:52.159Z,1.13
2023-01-02T19:09:23.118Z,0.65
2023-01-02T19:12:15.393Z,1.70
2023-01-02T19:14:44.183Z,0.60
2023-01-02T19:17:32.359Z,0.90
2023-01-02T19:22:35.793Z,1.30
2023-01-02T19:25:14.154Z,0.95
2023-01-02T19:27:41.043Z,0.80
2023-01-02T19:30:31.815Z,1.20
2023-01-02T19:32:58.897Z,1.52
2023-01-02T19:37:52.556Z,1.38
2023-01-02T19:40:21.445Z,1.23
2023-01-02T19:42:52.522Z,0.98
2023-01-02T19:45:22.023Z,1.00
2023-01-02T19:47:50.003Z,1.27
2023-01-02T19:50:20.632Z,1.10
2023-01-02T19:52:47.663Z,1.00
2023-01-02T19:55:15.343Z,0.80
2023-01-02T19:57:42.065Z,0.88
2023-01-02T20:00:14.665Z,0.85
2023-01-02T20:02:43.019Z,0.85
2023-01-02T20:05:11.882Z,0.98
2023-01-02T20:07:40.356Z,1.48
2023-01-02T20:10:08.059Z,1.02
2023-01-02T20:12:34.891Z,0.82
2023-01-02T20:15:20.834Z,1.10
2023-01-02T20:17:48.012Z,0.70
2023-01-02T20:20:17.816Z,0.80
2023-01-02T20:22:45.197Z,0.75
2023-01-02T20:25:13.961Z,0.90
2023-01-02T20:27:41.465Z,0.80
2023-01-02T20:30:09.466Z,0.90
2023-01-02T20:32:36.526Z,1.13
2023-01-02T20:37:31.140Z,1.02
2023-01-02T20:39:58.018Z,1.30
2023-01-02T20:42:24.803Z,1.00
2023-01-02T20:44:51.978Z,1.10
2023-01-02T20:47:19.117Z,1.02
2023-01-02T20:49:45.984Z,0.90
2023-01-02T20:52:12.780Z,1.30
2023-01-02T20:54:40.263Z,1.00
2023-01-02T20:57:07.099Z,1.02
2023-01-02T20:59:33.877Z,0.93
2023-01-02T21:02:00.806Z,0.75
2023-01-02T21:07:04.661Z,1.30
2023-01-02T21:09:31.525Z,0.93
2023-01-02T21:11:58.414Z,0.82
2023-01-02T21:14:25.211Z,1.10
2023-01-02T21:16:52.053Z,1.15
2023-01-02T21:19:18.820Z,1.10
2023-01-02T21:21:46.123Z,1.20
2023-01-02T21:24:13.149Z,1.40
2023-01-02T21:29:06.519Z,1.67
2023-01-02T21:31:34.043Z,2.20
2023-01-02T21:36:27.551Z,1.88
2023-01-02T21:38:54.332Z,1.70
2023-01-02T21:41:39.769Z,2.83
2023-01-02T21:44:06.564Z,1.30
2023-01-02T21:46:33.307Z,0.90
2023-01-02T21:49:00.110Z,1.20
2023-01-02T21:51:32.487Z,1.38
2023-01-02T21:53:59.977Z,0.98
2023-01-02T21:56:26.771Z,1.40
2023-01-02T21:58:54.860Z,1.00
2023-01-02T22:01:21.896Z,1.13
2023-01-02T22:03:48.985Z,1.55
2023-01-02T22:08:43.395Z,1.27
2023-01-02T22:11:28.834Z,1.48
2023-01-02T22:13:55.556Z,1.50
2023-01-02T22:16:22.862Z,1.85
2023-01-02T22:18:50.676Z,1.83
2023-01-02T22:21:17.500Z,2.00
2023-01-02T22:23:44.470Z,2.60
2023-01-02T22:28:38.034Z,1.80
2023-01-02T22:31:06.113Z,1.95
2023-01-02T22:33:33.850Z,2.13
2023-01-02T22:36:00.611Z,2.20
2023-01-02T22:38:27.424Z,1.80
2023-01-02T22:40:55.236Z,1.52
2023-01-02T22:43:24.662Z,1.58
2023-01-02T22:45:53.336Z,1.60
2023-01-02T22:48:31.613Z,1.60
2023-01-02T22:51:00.768Z,1.30
2023-01-02T22:53:34.323Z,1.73
2023-01-02T22:56:06.182Z,1.58
2023-01-02T22:58:33.577Z,2.08
2023-01-02T23:01:02.880Z,1.80
2023-01-02T23:03:35.558Z,1.58
2023-01-02T23:06:02.337Z,1.40
2023-01-02T23:08:29.287Z,1.90
2023-01-02T23:10:56.059Z,1.30
2023-01-02T23:13:23.366Z,1.90
2023-01-02T23:16:08.765Z,1.60
2023-01-02T23:18:56.943Z,1.42
2023-01-02T23:21:26.519Z,2.10
2023-01-02T23:23:53.422Z,1.10
2023-01-02T23:26:21.242Z,1.20
2023-01-02T23:31:37.015Z,1.23
2023-01-02T23:34:03.903Z,1.20
2023-01-02T23:36:36.382Z,1.42
2023-01-02T23:39:06.733Z,1.33
2023-01-02T23:41:34.502Z,1.33
2023-01-02T23:44:02.151Z,1.75
2023-01-02T23:46:29.479Z,1.90
2023-01-02T23:48:56.592Z,1.88
2023-01-02T23:51:23.284Z,1.40
2023-01-02T23:53:50.428Z,1.40
2023-01-02T23:56:22.206Z,2.03
2023-01-02T23:58:52.664Z,1.92
